createdAt,value
2022-07-30T00:01:35.991Z,18.57
2022-07-30T00:04:04.018Z,18.26
2022-07-30T00:06:32.704Z,18.04
2022-07-30T00:08:59.978Z,17.98
2022-07-30T00:11:28.129Z,17.92
2022-07-30T00:13:56.028Z,18.01
2022-07-30T00:16:23.413Z,18.09
2022-07-30T00:18:50.547Z,18.33
2022-07-30T00:21:34.608Z,18.26
2022-07-30T00:24:04.609Z,18.41
2022-07-30T00:26:31.886Z,18.43
2022-07-30T00:28:58.962Z,18.37
2022-07-30T00:31:26.162Z,18.30
2022-07-30T00:33:53.231Z,18.25
2022-07-30T00:36:20.403Z,18.17
2022-07-30T00:38:47.523Z,18.01
2022-07-30T00:41:15.523Z,17.97
2022-07-30T00:43:43.717Z,18.18
2022-07-30T00:46:11.673Z,18.09
2022-07-30T00:48:38.787Z,18.17
2022-07-30T00:51:05.959Z,17.72
2022-07-30T00:53:34.704Z,17.72
2022-07-30T00:56:03.023Z,17.77
2022-07-30T00:58:31.031Z,17.50
2022-07-30T01:00:58.374Z,17.61
2022-07-30T01:03:25.352Z,17.57
2022-07-30T01:05:52.629Z,17.76
2022-07-30T01:08:19.628Z,17.70
2022-07-30T01:10:46.828Z,17.72
2022-07-30T01:13:14.303Z,17.74
2022-07-30T01:15:42.015Z,17.80
2022-07-30T01:18:12.774Z,17.69
2022-07-30T01:20:52.124Z,17.78
2022-07-30T01:23:32.051Z,17.67
2022-07-30T01:26:02.604Z,17.14
2022-07-30T01:28:35.508Z,17.10
2022-07-30T01:31:05.918Z,17.35
2022-07-30T01:33:37.652Z,17.16
2022-07-30T01:36:08.185Z,17.33
2022-07-30T01:38:38.673Z,17.44
2022-07-30T01:41:07.047Z,17.18
2022-07-30T01:43:36.774Z,17.38
2022-07-30T01:46:06.123Z,17.45
2022-07-30T01:48:40.612Z,17.27
2022-07-30T01:51:09.052Z,17.41
2022-07-30T01:53:41.684Z,17.51
2022-07-30T01:56:12.836Z,17.25
2022-07-30T01:58:46.586Z,17.37
2022-07-30T02:01:13.857Z,17.26
2022-07-30T02:03:42.666Z,17.38
2022-07-30T02:06:19.690Z,17.30
2022-07-30T02:08:58.090Z,17.40
2022-07-30T02:11:44.065Z,17.28
2022-07-30T02:14:26.879Z,17.29
2022-07-30T02:16:59.196Z,17.32
2022-07-30T02:19:36.783Z,17.27
2022-07-30T02:22:16.112Z,17.34
2022-07-30T02:24:44.798Z,17.10
2022-07-30T02:27:38.311Z,17.20
2022-07-30T02:30:06.646Z,17.28
2022-07-30T02:32:42.577Z,17.33
2022-07-30T02:35:19.870Z,16.94
2022-07-30T02:37:50.878Z,17.06
2022-07-30T02:40:22.780Z,16.95
2022-07-30T02:42:53.275Z,17.15
2022-07-30T02:45:22.603Z,17.19
2022-07-30T02:48:04.899Z,17.21
2022-07-30T02:50:32.671Z,17.27
2022-07-30T02:53:02.714Z,17.02
2022-07-30T02:55:33.477Z,17.10
2022-07-30T02:58:04.202Z,17.09
2022-07-30T03:00:32.253Z,17.18
2022-07-30T03:03:00.551Z,17.23
2022-07-30T03:05:29.410Z,17.32
2022-07-30T03:07:59.848Z,17.30
2022-07-30T03:10:28.842Z,17.15
2022-07-30T03:12:57.202Z,17.37
2022-07-30T03:15:24.576Z,17.17
2022-07-30T03:17:55.569Z,17.04
2022-07-30T03:20:29.646Z,17.12
2022-07-30T03:23:00.077Z,17.11
2022-07-30T03:25:28.902Z,16.94
2022-07-30T03:28:15.570Z,17.31
2022-07-30T03:30:44.171Z,17.38
2022-07-30T03:33:13.139Z,17.35
2022-07-30T03:35:43.674Z,17.36
2022-07-30T03:38:15.632Z,17.19
2022-07-30T03:40:44.391Z,17.20
2022-07-30T03:43:18.305Z,17.15
2022-07-30T03:46:03.438Z,16.99
2022-07-30T03:48:31.579Z,17.01
2022-07-30T03:51:01.435Z,16.92
2022-07-30T03:53:29.361Z,17.14
2022-07-30T03:55:56.887Z,17.34
2022-07-30T03:58:24.128Z,17.32
2022-07-30T04:00:51.962Z,17.21
2022-07-30T04:03:27.768Z,17.33
2022-07-30T04:05:55.121Z,17.28
2022-07-30T04:08:22.643Z,17.32
2022-07-30T04:10:51.450Z,17.31
2022-07-30T04:13:18.755Z,17.42
2022-07-30T04:16:39.906Z,17.67
2022-07-30T04:19:12.562Z,17.63
2022-07-30T04:21:41.975Z,17.70
2022-07-30T04:24:11.379Z,17.90
2022-07-30T04:26:39.210Z,17.78
2022-07-30T04:29:07.602Z,18.14
2022-07-30T04:31:40.690Z,18.12
2022-07-30T04:34:08.573Z,18.10
2022-07-30T04:36:38.880Z,18.30
2022-07-30T04:39:06.186Z,18.13
2022-07-30T04:41:48.720Z,18.43
2022-07-30T04:44:19.106Z,18.62
2022-07-30T04:46:47.956Z,18.50
2022-07-30T04:49:18.322Z,18.73
2022-07-30T04:51:46.879Z,18.63
2022-07-30T04:54:16.362Z,18.95
2022-07-30T04:56:52.626Z,19.01
2022-07-30T04:59:25.127Z,19.41
2022-07-30T05:01:53.810Z,19.11
2022-07-30T05:04:24.705Z,18.68
2022-07-30T05:06:53.772Z,18.98
2022-07-30T05:09:22.375Z,19.00
2022-07-30T05:11:53.900Z,19.05
2022-07-30T05:14:22.380Z,19.14
2022-07-30T05:16:50.720Z,19.22
2022-07-30T05:19:19.896Z,19.48
2022-07-30T05:21:46.948Z,19.52
2022-07-30T05:24:14.581Z,19.36
2022-07-30T05:26:42.333Z,19.79
2022-07-30T05:29:09.739Z,20.02
2022-07-30T05:31:47.351Z,20.00
2022-07-30T05:34:15.617Z,20.09
2022-07-30T05:36:44.675Z,20.06
2022-07-30T05:39:12.020Z,20.30
2022-07-30T05:41:39.115Z,20.31
2022-07-30T05:44:06.409Z,20.45
2022-07-30T05:46:33.905Z,20.58
2022-07-30T05:49:01.147Z,20.85
2022-07-30T05:51:29.461Z,21.03
2022-07-30T05:53:56.826Z,21.24
2022-07-30T05:56:24.049Z,21.47
2022-07-30T05:58:51.161Z,21.70
2022-07-30T06:01:18.383Z,22.05
2022-07-30T06:03:45.419Z,22.26
2022-07-30T06:06:12.924Z,22.43
2022-07-30T06:08:40.208Z,23.01
2022-07-30T06:11:08.944Z,22.97
2022-07-30T06:13:37.587Z,23.19
2022-07-30T06:16:05.383Z,23.66
2022-07-30T06:18:32.935Z,23.03
2022-07-30T06:21:00.223Z,23.27
2022-07-30T06:23:27.471Z,23.48
2022-07-30T06:25:54.663Z,23.49
2022-07-30T06:28:37.061Z,23.30
2022-07-30T06:31:06.666Z,22.86
2022-07-30T06:33:34.547Z,22.75
2022-07-30T06:36:01.931Z,22.98
2022-07-30T06:38:29.255Z,22.42
2022-07-30T06:41:02.026Z,22.53
2022-07-30T06:43:33.412Z,22.19
2022-07-30T06:46:01.149Z,22.67
2022-07-30T06:48:31.790Z,22.90
2022-07-30T06:50:58.989Z,22.92
2022-07-30T06:53:26.044Z,22.91
2022-07-30T06:55:56.806Z,23.01
2022-07-30T06:58:25.951Z,23.30
2022-07-30T07:00:53.503Z,23.58
2022-07-30T07:03:21.429Z,23.45
2022-07-30T07:05:48.733Z,23.29
2022-07-30T07:08:15.812Z,23.06
2022-07-30T07:10:43.223Z,23.03
2022-07-30T07:13:10.316Z,23.49
2022-07-30T07:15:37.782Z,23.60
2022-07-30T07:18:06.487Z,23.40
2022-07-30T07:20:35.018Z,23.04
2022-07-30T07:23:08.871Z,23.47
2022-07-30T07:25:36.785Z,23.36
2022-07-30T07:28:11.771Z,23.46
2022-07-30T07:30:44.271Z,23.91
2022-07-30T07:33:13.160Z,24.12
2022-07-30T07:35:49.239Z,24.10
2022-07-30T07:38:18.579Z,24.04
2022-07-30T07:40:47.401Z,24.21
2022-07-30T07:43:15.746Z,24.89
2022-07-30T07:45:44.309Z,24.98
2022-07-30T07:48:12.183Z,25.28
2022-07-30T07:50:39.981Z,25.26
2022-07-30T07:53:07.337Z,25.85
2022-07-30T07:55:34.449Z,25.68
2022-07-30T07:58:02.178Z,25.74
2022-07-30T08:00:29.578Z,26.40
2022-07-30T08:02:56.702Z,26.26
2022-07-30T08:05:24.207Z,26.37
2022-07-30T08:07:51.311Z,26.60
2022-07-30T08:10:19.154Z,27.04
2022-07-30T08:12:46.169Z,28.21
2022-07-30T08:15:13.638Z,28.10
2022-07-30T08:17:45.459Z,27.79
2022-07-30T08:20:14.478Z,28.26
2022-07-30T08:22:42.048Z,27.63
2022-07-30T08:25:10.080Z,28.38
2022-07-30T08:27:37.354Z,28.64
2022-07-30T08:30:06.483Z,28.80
2022-07-30T08:32:33.984Z,28.54
2022-07-30T08:35:01.435Z,29.04
2022-07-30T08:37:29.121Z,29.25
2022-07-30T08:39:56.520Z,30.56
2022-07-30T08:42:24.569Z,29.65
2022-07-30T08:44:54.769Z,29.60
2022-07-30T08:47:31.211Z,29.89
2022-07-30T08:50:04.660Z,29.81
2022-07-30T08:52:38.725Z,29.06
2022-07-30T08:55:06.786Z,29.48
2022-07-30T08:57:37.870Z,29.57
2022-07-30T09:00:07.222Z,29.24
2022-07-30T09:02:34.758Z,29.17
2022-07-30T09:05:05.595Z,28.92
2022-07-30T09:07:36.547Z,29.12
2022-07-30T09:10:08.969Z,28.61
2022-07-30T09:12:42.956Z,28.91
2022-07-30T09:15:20.494Z,28.79
2022-07-30T09:18:00.719Z,28.75
2022-07-30T09:20:35.015Z,28.92
2022-07-30T09:23:05.642Z,28.60
2022-07-30T09:25:43.848Z,28.90
2022-07-30T09:28:16.314Z,28.94
2022-07-30T09:30:48.286Z,29.36
2022-07-30T09:33:30.554Z,29.64
2022-07-30T09:35:57.727Z,29.91
2022-07-30T09:38:26.228Z,29.14
2022-07-30T09:40:57.795Z,29.13
2022-07-30T09:43:28.043Z,29.30
2022-07-30T09:45:58.927Z,29.71
2022-07-30T09:48:28.392Z,29.73
2022-07-30T09:50:57.386Z,30.20
2022-07-30T09:53:25.272Z,31.02
2022-07-30T09:55:52.746Z,30.82
2022-07-30T09:58:27.047Z,29.99
2022-07-30T10:01:01.468Z,30.00
2022-07-30T10:03:33.711Z,29.50
2022-07-30T10:06:11.669Z,29.71
2022-07-30T10:08:48.124Z,29.44
2022-07-30T10:11:23.596Z,28.98
2022-07-30T10:13:57.899Z,28.56
2022-07-30T10:16:29.723Z,28.82
2022-07-30T10:19:00.250Z,29.44
2022-07-30T10:21:29.104Z,29.40
2022-07-30T10:24:00.692Z,28.71
2022-07-30T10:26:30.430Z,28.23
2022-07-30T10:28:59.282Z,28.30
2022-07-30T10:31:48.443Z,28.14
2022-07-30T10:34:23.792Z,27.83
2022-07-30T10:37:00.727Z,27.82
2022-07-30T10:39:39.541Z,27.60
2022-07-30T10:42:46.319Z,27.83
2022-07-30T10:45:26.275Z,27.82
2022-07-30T10:47:55.392Z,28.08
2022-07-30T10:50:27.804Z,27.89
2022-07-30T10:53:01.320Z,27.90
2022-07-30T10:55:38.774Z,28.22
2022-07-30T10:58:14.359Z,27.69
2022-07-30T11:00:51.954Z,27.96
2022-07-30T11:03:38.786Z,27.94
2022-07-30T11:06:15.454Z,28.01
2022-07-30T11:08:48.626Z,28.21
2022-07-30T11:12:01.431Z,28.12
2022-07-30T11:14:13.010Z,28.02
2022-07-30T11:16:40.223Z,27.96
2022-07-30T11:19:55.560Z,28.33
2022-07-30T11:22:31.435Z,28.04
2022-07-30T11:25:00.457Z,27.01
2022-07-30T11:27:38.519Z,27.08
2022-07-30T11:30:18.162Z,27.80
2022-07-30T11:32:57.175Z,27.36
2022-07-30T11:35:34.374Z,27.58
2022-07-30T11:38:19.748Z,27.28
2022-07-30T11:40:49.439Z,27.48
2022-07-30T11:43:35.765Z,26.53
2022-07-30T11:46:10.993Z,27.06
2022-07-30T11:49:05.770Z,27.34
2022-07-30T11:51:46.745Z,27.13
2022-07-30T11:54:15.478Z,27.30
2022-07-30T11:57:02.326Z,27.31
2022-07-30T11:59:31.564Z,27.91
2022-07-30T12:02:01.746Z,28.05
2022-07-30T12:04:29.803Z,27.15
2022-07-30T12:07:01.810Z,27.70
2022-07-30T12:09:29.376Z,27.20
2022-07-30T12:11:57.599Z,27.77
2022-07-30T12:14:25.074Z,27.82
2022-07-30T12:16:54.122Z,28.01
2022-07-30T12:19:21.781Z,27.58
2022-07-30T12:21:53.781Z,26.97
2022-07-30T12:24:26.754Z,27.25
2022-07-30T12:27:06.113Z,27.02
2022-07-30T12:29:37.529Z,26.11
2022-07-30T12:32:05.198Z,26.73
2022-07-30T12:34:33.860Z,26.75
2022-07-30T12:37:10.167Z,27.24
2022-07-30T12:39:37.595Z,27.03
2022-07-30T12:42:05.051Z,27.25
2022-07-30T12:44:46.032Z,26.78
2022-07-30T12:47:26.212Z,27.10
2022-07-30T12:49:55.179Z,26.03
2022-07-30T12:52:31.773Z,26.94
2022-07-30T12:55:09.643Z,27.47
2022-07-30T12:58:07.030Z,27.59
2022-07-30T13:00:52.725Z,27.32
2022-07-30T13:03:24.527Z,26.71
2022-07-30T13:05:55.347Z,26.75
2022-07-30T13:08:57.640Z,26.16
2022-07-30T13:11:48.660Z,26.13
2022-07-30T13:14:17.485Z,26.19
2022-07-30T13:16:45.668Z,26.07
2022-07-30T13:19:13.203Z,26.12
2022-07-30T13:21:49.883Z,25.82
2022-07-30T13:24:18.974Z,26.02
2022-07-30T13:26:47.036Z,26.26
2022-07-30T13:29:14.484Z,26.35
2022-07-30T13:31:42.594Z,25.78
2022-07-30T13:34:12.129Z,25.84
2022-07-30T13:36:39.762Z,25.96
2022-07-30T13:39:07.080Z,25.70
2022-07-30T13:41:36.220Z,25.65
2022-07-30T13:44:04.533Z,25.89
2022-07-30T13:46:31.755Z,25.55
2022-07-30T13:48:59.325Z,25.84
2022-07-30T13:51:26.572Z,25.71
2022-07-30T13:53:56.998Z,26.12
2022-07-30T13:56:24.152Z,25.68
2022-07-30T13:58:51.309Z,26.00
2022-07-30T14:01:19.804Z,26.16
2022-07-30T14:03:50.516Z,26.18
2022-07-30T14:06:19.551Z,26.20
2022-07-30T14:08:48.918Z,26.21
2022-07-30T14:11:17.943Z,26.55
2022-07-30T14:13:46.000Z,26.46
2022-07-30T14:16:42.348Z,26.58
2022-07-30T14:19:01.364Z,25.95
2022-07-30T14:21:28.652Z,26.26
2022-07-30T14:23:56.332Z,25.52
2022-07-30T14:26:23.464Z,25.58
2022-07-30T14:28:51.007Z,25.84
2022-07-30T14:31:18.139Z,25.50
2022-07-30T14:33:45.339Z,25.73
2022-07-30T14:36:12.851Z,25.76
2022-07-30T14:38:40.023Z,25.86
2022-07-30T14:41:09.005Z,25.52
2022-07-30T14:43:36.341Z,25.92
2022-07-30T14:46:03.859Z,25.87
2022-07-30T14:48:32.196Z,26.03
2022-07-30T14:51:15.849Z,25.81
2022-07-30T14:53:47.265Z,26.16
2022-07-30T14:56:14.706Z,26.39
2022-07-30T14:58:45.688Z,26.15
2022-07-30T15:01:16.647Z,25.19
2022-07-30T15:03:45.874Z,25.73
2022-07-30T15:06:15.170Z,25.41
2022-07-30T15:08:43.243Z,25.82
2022-07-30T15:11:10.321Z,25.66
2022-07-30T15:13:49.733Z,25.94
2022-07-30T15:16:19.101Z,25.81
2022-07-30T15:18:46.464Z,25.66
2022-07-30T15:21:13.771Z,25.11
2022-07-30T15:23:41.016Z,25.42
2022-07-30T15:26:08.411Z,25.24
2022-07-30T15:28:36.930Z,24.93
2022-07-30T15:31:04.719Z,25.33
2022-07-30T15:33:36.649Z,25.20
2022-07-30T15:36:04.604Z,25.32
2022-07-30T15:38:31.805Z,25.30
2022-07-30T15:41:01.785Z,25.00
2022-07-30T15:43:29.058Z,24.84
2022-07-30T15:45:56.707Z,25.12
2022-07-30T15:48:27.844Z,24.70
2022-07-30T15:51:02.796Z,24.55
2022-07-30T15:53:31.759Z,25.12
2022-07-30T15:56:00.470Z,24.89
2022-07-30T15:58:28.098Z,24.66
2022-07-30T16:00:55.377Z,24.57
2022-07-30T16:03:22.804Z,24.18
2022-07-30T16:05:51.306Z,24.10
2022-07-30T16:08:21.554Z,24.07
2022-07-30T16:10:49.857Z,23.52
2022-07-30T16:13:17.314Z,23.96
2022-07-30T16:15:45.436Z,23.56
2022-07-30T16:18:12.771Z,23.95
2022-07-30T16:20:40.088Z,23.95
2022-07-30T16:23:12.675Z,23.97
2022-07-30T16:25:42.421Z,24.05
2022-07-30T16:28:09.565Z,24.27
2022-07-30T16:30:50.570Z,24.41
2022-07-30T16:33:20.861Z,23.86
2022-07-30T16:35:56.757Z,23.85
2022-07-30T16:38:24.106Z,24.20
2022-07-30T16:40:54.496Z,23.93
2022-07-30T16:43:21.552Z,23.99
2022-07-30T16:45:49.161Z,24.51
2022-07-30T16:48:16.767Z,24.69
2022-07-30T16:50:44.727Z,24.48
2022-07-30T16:53:14.358Z,24.12
2022-07-30T16:55:43.488Z,24.59
2022-07-30T16:58:11.441Z,24.41
2022-07-30T17:00:38.947Z,24.67
2022-07-30T17:03:12.018Z,24.69
2022-07-30T17:05:47.641Z,24.92
2022-07-30T17:08:15.106Z,25.10
2022-07-30T17:10:46.197Z,25.13
2022-07-30T17:13:15.269Z,25.25
2022-07-30T17:15:43.155Z,25.29
2022-07-30T17:18:12.942Z,25.27
2022-07-30T17:20:40.173Z,25.21
2022-07-30T17:23:08.063Z,25.27
2022-07-30T17:25:35.382Z,25.40
2022-07-30T17:28:02.601Z,25.52
2022-07-30T17:30:32.892Z,25.46
2022-07-30T17:33:01.084Z,25.36
2022-07-30T17:35:28.357Z,25.34
2022-07-30T17:37:55.663Z,25.29
2022-07-30T17:40:29.254Z,25.08
2022-07-30T17:43:06.094Z,25.11
2022-07-30T17:45:36.293Z,25.13
2022-07-30T17:48:05.343Z,24.91
2022-07-30T17:50:35.787Z,24.89
2022-07-30T17:53:05.928Z,24.74
2022-07-30T17:55:36.466Z,24.46
2022-07-30T17:58:05.247Z,24.39
2022-07-30T18:00:34.869Z,24.48
2022-07-30T18:03:03.792Z,24.42
2022-07-30T18:05:32.051Z,24.41
2022-07-30T18:07:59.403Z,24.38
2022-07-30T18:10:26.541Z,24.37
2022-07-30T18:12:53.699Z,24.28
2022-07-30T18:15:21.055Z,24.19
2022-07-30T18:17:48.754Z,24.03
2022-07-30T18:20:16.192Z,23.87
2022-07-30T18:25:18.031Z,23.77
2022-07-30T18:27:48.033Z,23.76
2022-07-30T18:30:15.567Z,23.63
2022-07-30T18:32:43.349Z,23.60
2022-07-30T18:35:14.539Z,23.52
2022-07-30T18:37:45.654Z,23.03
2022-07-30T18:40:18.561Z,23.00
2022-07-30T18:42:49.589Z,22.63
2022-07-30T18:45:16.968Z,22.86
2022-07-30T18:47:45.714Z,22.86
2022-07-30T18:50:15.741Z,22.58
2022-07-30T18:52:43.353Z,22.53
2022-07-30T18:55:12.445Z,22.14
2022-07-30T18:57:41.247Z,22.27
2022-07-30T19:00:35.119Z,22.13
2022-07-30T19:03:02.938Z,22.16
2022-07-30T19:05:31.310Z,22.34
2022-07-30T19:07:59.142Z,22.08
2022-07-30T19:10:27.703Z,21.94
2022-07-30T19:12:56.397Z,21.95
2022-07-30T19:15:26.720Z,22.10
2022-07-30T19:17:58.229Z,22.10
2022-07-30T19:20:26.700Z,21.76
2022-07-30T19:23:06.941Z,22.10
2022-07-30T19:25:54.517Z,22.12
2022-07-30T19:28:24.706Z,22.14
2022-07-30T19:30:51.744Z,22.14
2022-07-30T19:33:18.818Z,21.98
2022-07-30T19:35:48.316Z,21.95
2022-07-30T19:38:22.051Z,21.86
2022-07-30T19:40:51.845Z,21.56
2022-07-30T19:43:24.010Z,21.58
2022-07-30T19:45:51.812Z,21.52
2022-07-30T19:48:29.397Z,21.73
2022-07-30T19:51:00.784Z,21.54
2022-07-30T19:53:31.609Z,21.83
2022-07-30T19:56:03.440Z,21.36
2022-07-30T19:58:32.229Z,21.62
2022-07-30T20:01:00.314Z,21.69
2022-07-30T20:03:31.608Z,21.57
2022-07-30T20:06:00.384Z,21.58
2022-07-30T20:08:28.515Z,21.69
2022-07-30T20:10:57.572Z,21.75
2022-07-30T20:13:44.686Z,21.60
2022-07-30T20:16:15.905Z,21.29
2022-07-30T20:18:46.173Z,21.16
2022-07-30T20:21:16.626Z,21.25
2022-07-30T20:23:45.080Z,21.26
2022-07-30T20:26:17.123Z,21.36
2022-07-30T20:28:52.622Z,21.15
2022-07-30T20:31:21.179Z,20.85
2022-07-30T20:33:51.929Z,21.03
2022-07-30T20:36:20.028Z,21.20
2022-07-30T20:38:50.706Z,21.03
2022-07-30T20:41:20.917Z,21.20
2022-07-30T20:43:52.501Z,21.05
2022-07-30T20:46:39.782Z,21.01
2022-07-30T20:49:07.489Z,21.11
2022-07-30T20:51:37.944Z,20.97
2022-07-30T20:54:29.459Z,21.00
2022-07-30T20:56:57.477Z,21.19
2022-07-30T20:59:26.071Z,21.08
2022-07-30T21:02:00.084Z,21.23
2022-07-30T21:04:28.290Z,21.15
2022-07-30T21:06:55.449Z,21.02
2022-07-30T21:09:52.440Z,21.09
2022-07-30T21:12:19.824Z,21.29
2022-07-30T21:15:00.322Z,21.39
2022-07-30T21:17:28.311Z,21.22
2022-07-30T21:19:55.465Z,21.30
2022-07-30T21:22:22.827Z,21.37
2022-07-30T21:24:51.180Z,21.39
2022-07-30T21:27:19.004Z,21.23
2022-07-30T21:29:46.451Z,21.34
2022-07-30T21:32:14.878Z,21.25
2022-07-30T21:34:46.621Z,21.28
2022-07-30T21:37:15.633Z,21.27
2022-07-30T21:39:46.357Z,21.17
2022-07-30T21:42:14.420Z,21.19
2022-07-30T21:44:41.568Z,21.08
2022-07-30T21:47:10.290Z,21.13
2022-07-30T21:49:39.092Z,21.13
2022-07-30T21:52:08.844Z,21.04
2022-07-30T21:54:48.375Z,21.20
2022-07-30T21:57:26.301Z,21.17
2022-07-30T21:59:58.233Z,21.23
2022-07-30T22:02:25.587Z,21.17
2022-07-30T22:04:55.138Z,21.21
2022-07-30T22:07:22.429Z,21.16
2022-07-30T22:09:49.646Z,21.21
2022-07-30T22:12:18.013Z,20.78
2022-07-30T22:14:49.470Z,20.97
2022-07-30T22:17:23.633Z,20.81
2022-07-30T22:20:08.871Z,20.71
2022-07-30T22:22:39.921Z,20.87
2022-07-30T22:25:09.874Z,20.72
2022-07-30T22:27:56.756Z,20.83
2022-07-30T22:30:27.360Z,20.28
2022-07-30T22:33:30.515Z,20.66
2022-07-30T22:35:59.151Z,20.62
2022-07-30T22:38:27.281Z,20.50
2022-07-30T22:40:54.554Z,20.49
2022-07-30T22:43:24.358Z,20.68
2022-07-30T22:46:00.594Z,20.59
2022-07-30T22:48:27.823Z,20.70
2022-07-30T22:50:58.744Z,20.45
2022-07-30T22:53:56.813Z,20.74
2022-07-30T22:56:16.412Z,20.66
2022-07-30T22:58:44.345Z,20.46
2022-07-30T23:01:11.445Z,20.48
2022-07-30T23:03:38.548Z,20.42
2022-07-30T23:06:06.536Z,20.60
2022-07-30T23:08:41.747Z,20.62
2022-07-30T23:11:09.502Z,20.65
2022-07-30T23:13:38.661Z,20.73
2022-07-30T23:16:06.827Z,20.77
2022-07-30T23:18:37.376Z,20.69
2022-07-30T23:21:05.006Z,20.73
2022-07-30T23:23:33.799Z,20.58
2022-07-30T23:26:05.201Z,20.57
2022-07-30T23:28:32.863Z,20.39
2022-07-30T23:31:00.303Z,20.44
2022-07-30T23:33:27.492Z,20.52
2022-07-30T23:35:54.809Z,20.59
2022-07-30T23:38:22.339Z,20.65
2022-07-30T23:40:49.453Z,20.54
2022-07-30T23:43:17.207Z,20.61
2022-07-30T23:45:44.598Z,20.53
2022-07-30T23:48:12.128Z,20.71
2022-07-30T23:50:39.176Z,20.67
2022-07-30T23:53:06.455Z,20.59
2022-07-30T23:55:33.611Z,20.59
2022-07-30T23:58:04.789Z,20.53
